createdAt,value
2017-06-04T00:00:01.536Z,1010.37
2017-06-04T00:01:10.425Z,1010.37
2017-06-04T00:02:19.319Z,1010.39
2017-06-04T00:03:28.535Z,1010.38
2017-06-04T00:04:37.754Z,1010.39
2017-06-04T00:05:47.150Z,1010.42
2017-06-04T00:06:56.049Z,1010.4
2017-06-04T00:08:05.587Z,1010.4
2017-06-04T00:09:15.132Z,1010.39
2017-06-04T00:10:24.027Z,1010.34
2017-06-04T00:11:33.219Z,1010.38
2017-06-04T00:12:42.436Z,1010.39
2017-06-04T00:13:51.655Z,1010.43
2017-06-04T00:15:00.875Z,1010.39
2017-06-04T00:16:10.420Z,1010.41
2017-06-04T00:17:19.610Z,1010.4
2017-06-04T00:18:28.504Z,1010.41
2017-06-04T00:19:37.394Z,1010.49
2017-06-04T00:20:46.939Z,1010.48
2017-06-04T00:21:56.158Z,1010.45
2017-06-04T00:23:05.050Z,1010.49
2017-06-04T00:24:13.945Z,1010.5
2017-06-04T00:25:22.839Z,1010.52
2017-06-04T00:26:31.732Z,1010.47
2017-06-04T00:27:40.966Z,1010.51
2017-06-04T00:28:50.330Z,1010.5
2017-06-04T00:29:59.222Z,1010.56
2017-06-04T00:31:08.439Z,1010.5
2017-06-04T00:32:17.332Z,1010.52
2017-06-04T00:33:26.546Z,1010.55
2017-06-04T00:34:35.811Z,1010.55
2017-06-04T00:35:44.700Z,1010.5
2017-06-04T00:36:53.595Z,1010.48
2017-06-04T00:38:02.488Z,1010.46
2017-06-04T00:39:11.705Z,1010.37
2017-06-04T00:40:21.548Z,1010.43
2017-06-04T00:41:30.442Z,1010.44
2017-06-04T00:42:39.664Z,1010.49
2017-06-04T00:43:49.210Z,1010.43
2017-06-04T00:44:58.103Z,1010.45
2017-06-04T00:46:07.046Z,1010.46
2017-06-04T00:47:15.938Z,1010.43
2017-06-04T00:48:24.832Z,1010.49
2017-06-04T00:49:34.053Z,1010.46
2017-06-04T00:50:42.948Z,1010.5
2017-06-04T00:51:52.324Z,1010.5
2017-06-04T00:53:01.248Z,1010.53
2017-06-04T00:54:10.465Z,1010.52
2017-06-04T00:55:19.361Z,1010.54
2017-06-04T00:56:28.254Z,1010.54
2017-06-04T00:57:37.949Z,1010.51
2017-06-04T00:58:46.839Z,1010.52
2017-06-04T00:59:56.057Z,1010.52
2017-06-04T01:01:05.276Z,1010.49
2017-06-04T01:02:14.168Z,1010.55
2017-06-04T01:03:23.685Z,1010.52
2017-06-04T01:04:32.578Z,1010.5
2017-06-04T01:05:41.470Z,1010.55
2017-06-04T01:06:51.013Z,1010.54
2017-06-04T01:08:00.227Z,1010.52
2017-06-04T01:09:09.269Z,1010.56
2017-06-04T01:10:18.160Z,1010.58
2017-06-04T01:11:27.057Z,1010.61
2017-06-04T01:12:36.269Z,1010.6
2017-06-04T01:13:45.158Z,1010.62
2017-06-04T01:14:54.202Z,1010.59
2017-06-04T01:16:03.096Z,1010.62
2017-06-04T01:17:11.989Z,1010.65
2017-06-04T01:18:20.880Z,1010.68
2017-06-04T01:19:29.771Z,1010.65
2017-06-04T01:20:38.813Z,1010.72
2017-06-04T01:21:47.704Z,1010.73
2017-06-04T01:22:56.595Z,1010.7
2017-06-04T01:24:05.813Z,1010.69
2017-06-04T01:25:15.034Z,1010.7
2017-06-04T01:26:24.406Z,1010.65
2017-06-04T01:27:33.303Z,1010.73
2017-06-04T01:28:42.192Z,1010.67
2017-06-04T01:29:51.407Z,1010.67
2017-06-04T01:31:00.300Z,1010.64
2017-06-04T01:32:09.518Z,1010.64
2017-06-04T01:33:18.413Z,1010.61
2017-06-04T01:34:27.658Z,1010.62
2017-06-04T01:35:36.889Z,1010.72
2017-06-04T01:36:45.781Z,1010.67
2017-06-04T01:37:54.919Z,1010.76
2017-06-04T01:39:03.812Z,1010.71
2017-06-04T01:40:12.706Z,1010.79
2017-06-04T01:41:21.596Z,1010.78
2017-06-04T01:42:30.489Z,1010.82
2017-06-04T01:43:39.529Z,1010.8
2017-06-04T01:44:48.751Z,1010.84
2017-06-04T01:45:57.642Z,1010.83
2017-06-04T01:47:07.192Z,1010.83
2017-06-04T01:48:16.085Z,1010.91
2017-06-04T01:49:25.024Z,1010.91
2017-06-04T01:50:33.917Z,1010.94
2017-06-04T01:51:42.808Z,1010.93
2017-06-04T01:52:52.028Z,1010.98
2017-06-04T01:54:00.919Z,1010.95
2017-06-04T01:55:09.960Z,1010.92
2017-06-04T01:56:19.178Z,1010.92
2017-06-04T01:57:28.073Z,1010.91
2017-06-04T01:58:36.967Z,1010.95
2017-06-04T01:59:46.183Z,1010.98
2017-06-04T02:00:55.122Z,1010.98
2017-06-04T02:02:04.016Z,1010.99
2017-06-04T02:03:12.913Z,1011
2017-06-04T02:04:21.805Z,1010.99
2017-06-04T02:05:31.018Z,1010.93
2017-06-04T02:06:40.058Z,1010.92
2017-06-04T02:07:49.275Z,1010.88
2017-06-04T02:08:58.171Z,1010.91
2017-06-04T02:10:07.386Z,1010.96
2017-06-04T02:11:16.927Z,1010.93
2017-06-04T02:12:26.617Z,1010.88
2017-06-04T02:13:35.511Z,1010.9
2017-06-04T02:14:44.728Z,1010.87
2017-06-04T02:15:53.949Z,1010.97
2017-06-04T02:17:02.841Z,1010.91
2017-06-04T02:18:11.880Z,1010.92
2017-06-04T02:19:20.774Z,1010.93
2017-06-04T02:20:29.664Z,1010.91
2017-06-04T02:21:38.560Z,1010.86
2017-06-04T02:22:47.782Z,1010.86
2017-06-04T02:23:56.825Z,1010.85
2017-06-04T02:25:05.715Z,1010.87
2017-06-04T02:26:14.930Z,1010.89
2017-06-04T02:27:23.911Z,1010.9
2017-06-04T02:28:32.805Z,1010.91
2017-06-04T02:29:41.695Z,1010.93
2017-06-04T02:30:50.590Z,1010.92
2017-06-04T02:31:59.806Z,1010.94
2017-06-04T02:33:09.356Z,1010.92
2017-06-04T02:34:18.576Z,1010.9
2017-06-04T02:35:27.784Z,1010.91
2017-06-04T02:36:36.675Z,1010.93
2017-06-04T02:37:45.568Z,1010.96
2017-06-04T02:38:54.790Z,1010.95
2017-06-04T02:40:04.010Z,1010.99
2017-06-04T02:41:13.229Z,1010.99
2017-06-04T02:42:22.125Z,1011.02
2017-06-04T02:43:31.019Z,1011.01
2017-06-04T02:44:39.911Z,1011.03
2017-06-04T02:45:48.805Z,1011.03
2017-06-04T02:46:58.000Z,1011.01
2017-06-04T02:48:06.892Z,1011
2017-06-04T02:49:15.783Z,1011.04
2017-06-04T02:50:25.004Z,1011.06
2017-06-04T02:51:33.896Z,1011.05
2017-06-04T02:52:43.420Z,1011.05
2017-06-04T02:53:52.341Z,1011.06
2017-06-04T02:55:01.558Z,1011.1
2017-06-04T02:56:10.449Z,1011.08
2017-06-04T02:57:19.344Z,1011.1
2017-06-04T02:58:28.293Z,1011.08
2017-06-04T02:59:37.188Z,1011.13
2017-06-04T03:00:46.755Z,1011.11
2017-06-04T03:01:55.648Z,1011.12
2017-06-04T03:03:04.538Z,1011.12
2017-06-04T03:04:13.425Z,1011.13
2017-06-04T03:05:22.318Z,1011.17
2017-06-04T03:06:31.213Z,1011.12
2017-06-04T03:07:40.107Z,1011.1
2017-06-04T03:08:48.997Z,1011.12
2017-06-04T03:09:58.044Z,1011.11
2017-06-04T03:11:07.262Z,1011.08
2017-06-04T03:12:16.482Z,1011.1
2017-06-04T03:13:25.369Z,1011.13
2017-06-04T03:14:34.288Z,1011.17
2017-06-04T03:15:43.481Z,1011.13
2017-06-04T03:16:52.403Z,1011.18
2017-06-04T03:18:01.300Z,1011.15
2017-06-04T03:19:10.193Z,1011.15
2017-06-04T03:20:19.416Z,1011.13
2017-06-04T03:21:28.683Z,1011.14
2017-06-04T03:22:37.902Z,1011.14
2017-06-04T03:23:46.794Z,1011.13
2017-06-04T03:24:55.686Z,1011.14
2017-06-04T03:26:04.578Z,1011.12
2017-06-04T03:27:13.902Z,1011.15
2017-06-04T03:28:22.792Z,1011.18
2017-06-04T03:29:31.683Z,1011.11
2017-06-04T03:30:40.917Z,1011.13
2017-06-04T03:31:50.136Z,1011.14
2017-06-04T03:32:59.079Z,1011.19
2017-06-04T03:34:07.973Z,1011.19
2017-06-04T03:35:16.867Z,1011.13
2017-06-04T03:36:25.760Z,1011.14
2017-06-04T03:37:34.973Z,1011.17
2017-06-04T03:38:44.337Z,1011.18
2017-06-04T03:39:53.230Z,1011.2
2017-06-04T03:41:02.125Z,1011.16
2017-06-04T03:42:11.023Z,1011.17
2017-06-04T03:43:19.919Z,1011.18
2017-06-04T03:44:28.865Z,1011.19
2017-06-04T03:45:38.078Z,1011.16
2017-06-04T03:46:47.294Z,1011.13
2017-06-04T03:47:56.511Z,1011.18
2017-06-04T03:49:05.404Z,1011.17
2017-06-04T03:50:14.619Z,1011.19
2017-06-04T03:51:23.889Z,1011.18
2017-06-04T03:52:32.779Z,1011.19
2017-06-04T03:53:41.667Z,1011.18
2017-06-04T03:54:50.561Z,1011.17
2017-06-04T03:55:59.879Z,1011.15
2017-06-04T03:57:09.099Z,1011.15
2017-06-04T03:58:17.995Z,1011.15
2017-06-04T03:59:26.889Z,1011.17
2017-06-04T04:00:35.781Z,1011.2
2017-06-04T04:01:44.769Z,1011.2
2017-06-04T04:02:53.657Z,1011.16
2017-06-04T04:04:02.874Z,1011.18
2017-06-04T04:05:11.768Z,1011.17
2017-06-04T04:06:20.988Z,1011.17
2017-06-04T04:07:30.017Z,1011.19
2017-06-04T04:08:38.912Z,1011.19
2017-06-04T04:09:47.806Z,1011.17
2017-06-04T04:10:56.692Z,1011.22
2017-06-04T04:12:05.583Z,1011.15
2017-06-04T04:13:14.509Z,1011.17
2017-06-04T04:14:23.758Z,1011.15
2017-06-04T04:15:33.299Z,1011.19
2017-06-04T04:16:42.518Z,1011.14
2017-06-04T04:17:51.415Z,1011.21
2017-06-04T04:19:00.453Z,1011.16
2017-06-04T04:20:09.345Z,1011.18
2017-06-04T04:21:18.563Z,1011.11
2017-06-04T04:22:27.461Z,1011.15
2017-06-04T04:23:36.680Z,1011.15
2017-06-04T04:24:46.216Z,1011.19
2017-06-04T04:25:55.110Z,1011.13
2017-06-04T04:27:04.002Z,1011.16
2017-06-04T04:28:12.901Z,1011.11
2017-06-04T04:29:21.789Z,1011.21
2017-06-04T04:30:31.055Z,1011.16
2017-06-04T04:31:39.948Z,1011.19
2017-06-04T04:32:48.843Z,1011.19
2017-06-04T04:33:58.381Z,1011.2
2017-06-04T04:35:07.595Z,1011.21
2017-06-04T04:36:16.539Z,1011.2
2017-06-04T04:37:25.757Z,1011.24
2017-06-04T04:38:34.683Z,1011.24
2017-06-04T04:39:43.576Z,1011.21
2017-06-04T04:40:52.467Z,1011.19
2017-06-04T04:42:02.258Z,1011.21
2017-06-04T04:43:11.153Z,1011.2
2017-06-04T04:44:20.040Z,1011.18
2017-06-04T04:45:28.983Z,1011.19
2017-06-04T04:46:37.904Z,1011.22
2017-06-04T04:47:46.798Z,1011.19
2017-06-04T04:48:55.688Z,1011.19
2017-06-04T04:50:04.577Z,1011.18
2017-06-04T04:51:13.467Z,1011.2
2017-06-04T04:52:22.356Z,1011.18
2017-06-04T04:53:31.295Z,1011.19
2017-06-04T04:54:40.185Z,1011.2
2017-06-04T04:55:49.080Z,1011.22
2017-06-04T04:56:57.973Z,1011.24
2017-06-04T04:58:07.189Z,1011.22
2017-06-04T04:59:16.080Z,1011.24
2017-06-04T05:00:25.292Z,1011.3
2017-06-04T05:01:34.516Z,1011.4
2017-06-04T05:02:43.411Z,1011.27
2017-06-04T05:03:52.301Z,1011.29
2017-06-04T05:05:01.292Z,1011.19
2017-06-04T05:06:10.521Z,1011.21
2017-06-04T05:07:19.733Z,1011.23
2017-06-04T05:08:28.627Z,1011.26
2017-06-04T05:09:37.518Z,1011.27
2017-06-04T05:10:46.407Z,1011.26
2017-06-04T05:11:55.947Z,1011.32
2017-06-04T05:13:04.840Z,1011.22
2017-06-04T05:14:14.065Z,1011.27
2017-06-04T05:15:22.980Z,1011.31
2017-06-04T05:16:32.351Z,1011.32
2017-06-04T05:17:41.241Z,1011.32
2017-06-04T05:18:50.457Z,1011.36
2017-06-04T05:19:59.349Z,1011.33
2017-06-04T05:21:08.262Z,1011.32
2017-06-04T05:22:17.204Z,1011.34
2017-06-04T05:23:26.098Z,1011.41
2017-06-04T05:24:34.996Z,1011.42
2017-06-04T05:25:43.911Z,1011.38
2017-06-04T05:26:52.802Z,1011.39
2017-06-04T05:28:01.698Z,1011.46
2017-06-04T05:29:10.597Z,1011.4
2017-06-04T05:30:19.489Z,1011.4
2017-06-04T05:31:28.378Z,1011.43
2017-06-04T05:32:37.269Z,1011.42
2017-06-04T05:33:46.362Z,1011.43
2017-06-04T05:34:55.255Z,1011.43
2017-06-04T05:36:04.146Z,1011.45
2017-06-04T05:37:13.357Z,1011.49
2017-06-04T05:38:22.249Z,1011.49
2017-06-04T05:39:31.449Z,1011.53
2017-06-04T05:40:40.666Z,1011.5
2017-06-04T05:41:49.555Z,1011.48
2017-06-04T05:42:58.448Z,1011.5
2017-06-04T05:44:07.338Z,1011.51
2017-06-04T05:45:16.380Z,1011.52
2017-06-04T05:46:25.278Z,1011.53
2017-06-04T05:47:34.497Z,1011.53
2017-06-04T05:48:43.385Z,1011.53
2017-06-04T05:49:52.276Z,1011.54
2017-06-04T05:51:01.268Z,1011.56
2017-06-04T05:52:10.480Z,1011.58
2017-06-04T05:53:19.746Z,1011.63
2017-06-04T05:54:28.635Z,1011.55
2017-06-04T05:55:37.879Z,1011.58
2017-06-04T05:56:46.921Z,1011.6
2017-06-04T05:57:55.813Z,1011.66
2017-06-04T05:59:04.702Z,1011.64
2017-06-04T06:00:13.597Z,1011.69
2017-06-04T06:01:22.488Z,1011.64
2017-06-04T06:02:31.855Z,1011.65
2017-06-04T06:03:40.748Z,1011.67
2017-06-04T06:04:49.639Z,1011.68
2017-06-04T06:05:58.534Z,1011.69
2017-06-04T06:07:07.425Z,1011.71
2017-06-04T06:08:16.343Z,1011.73
2017-06-04T06:09:25.240Z,1011.74
2017-06-04T06:10:34.458Z,1011.77
2017-06-04T06:11:43.351Z,1011.79
2017-06-04T06:12:52.247Z,1011.77
2017-06-04T06:14:01.458Z,1011.81
2017-06-04T06:15:10.673Z,1011.88
2017-06-04T06:16:19.887Z,1011.82
2017-06-04T06:17:28.790Z,1011.89
2017-06-04T06:18:37.719Z,1011.93
2017-06-04T06:19:47.233Z,1011.93
2017-06-04T06:20:56.125Z,1011.9
2017-06-04T06:22:05.669Z,1011.88
2017-06-04T06:23:14.882Z,1011.9
2017-06-04T06:24:23.774Z,1011.85
2017-06-04T06:25:32.767Z,1011.91
2017-06-04T06:26:41.663Z,1011.83
2017-06-04T06:27:50.553Z,1011.89
2017-06-04T06:28:59.447Z,1011.89
2017-06-04T06:30:08.662Z,1011.93
2017-06-04T06:31:17.605Z,1011.93
2017-06-04T06:32:26.825Z,1011.99
2017-06-04T06:33:35.719Z,1012.03
2017-06-04T06:34:44.612Z,1012
2017-06-04T06:35:53.509Z,1012.02
2017-06-04T06:37:02.726Z,1012.01
2017-06-04T06:38:11.941Z,1012.04
2017-06-04T06:39:21.158Z,1012.03
2017-06-04T06:40:30.373Z,1012.06
2017-06-04T06:41:39.261Z,1011.98
2017-06-04T06:42:48.460Z,1012.05
2017-06-04T06:43:57.348Z,1012.05
2017-06-04T06:45:07.211Z,1012.08
2017-06-04T06:46:16.105Z,1012.09
2017-06-04T06:47:24.997Z,1012.1
2017-06-04T06:48:34.215Z,1012.17
2017-06-04T06:49:43.776Z,1012.12
2017-06-04T06:50:52.999Z,1012.13
2017-06-04T06:52:01.893Z,1012.18
2017-06-04T06:53:10.787Z,1012.19
2017-06-04T06:54:19.980Z,1012.2
2017-06-04T06:55:28.873Z,1012.19
2017-06-04T06:56:37.771Z,1012.24
2017-06-04T06:57:46.989Z,1012.26
2017-06-04T06:58:55.876Z,1012.24
2017-06-04T07:00:05.426Z,1012.28
2017-06-04T07:01:14.316Z,1012.31
2017-06-04T07:02:23.529Z,1012.34
2017-06-04T07:03:32.416Z,1012.4
2017-06-04T07:04:41.309Z,1012.37
2017-06-04T07:05:50.503Z,1012.37
2017-06-04T07:06:59.402Z,1012.38
2017-06-04T07:08:08.623Z,1012.43
2017-06-04T07:09:17.841Z,1012.43
2017-06-04T07:10:26.733Z,1012.42
2017-06-04T07:11:36.107Z,1012.57
2017-06-04T07:12:45.651Z,1012.55
2017-06-04T07:13:54.873Z,1012.49
2017-06-04T07:15:04.117Z,1012.51
2017-06-04T07:16:13.014Z,1012.57
2017-06-04T07:17:22.006Z,1012.57
2017-06-04T07:18:31.224Z,1012.61
2017-06-04T07:19:40.443Z,1012.59
2017-06-04T07:20:49.333Z,1012.63
2017-06-04T07:21:58.545Z,1012.66
2017-06-04T07:23:07.589Z,1012.61
2017-06-04T07:24:16.487Z,1012.67
2017-06-04T07:25:25.704Z,1012.7
2017-06-04T07:26:34.602Z,1012.63
2017-06-04T07:27:43.495Z,1012.63
2017-06-04T07:28:52.820Z,1012.66
2017-06-04T07:30:02.041Z,1012.7
2017-06-04T07:31:10.938Z,1012.62
2017-06-04T07:32:19.833Z,1012.62
2017-06-04T07:33:28.729Z,1012.7
2017-06-04T07:34:37.668Z,1012.59
2017-06-04T07:35:46.561Z,1012.62
2017-06-04T07:36:55.457Z,1012.6
2017-06-04T07:38:04.675Z,1012.63
2017-06-04T07:39:13.898Z,1012.61
2017-06-04T07:40:23.214Z,1012.6
2017-06-04T07:41:32.138Z,1012.65
2017-06-04T07:42:41.032Z,1012.68
2017-06-04T07:43:49.958Z,1012.64
2017-06-04T07:44:59.503Z,1012.68
2017-06-04T07:46:08.397Z,1012.7
2017-06-04T07:47:17.293Z,1012.67
2017-06-04T07:48:26.510Z,1012.72
2017-06-04T07:49:35.725Z,1012.68
2017-06-04T07:50:44.643Z,1012.7
2017-06-04T07:51:53.542Z,1012.71
2017-06-04T07:53:02.756Z,1012.75
2017-06-04T07:54:11.651Z,1012.71
2017-06-04T07:55:20.542Z,1012.78
2017-06-04T07:56:29.760Z,1012.79
2017-06-04T07:57:39.136Z,1012.8
2017-06-04T07:58:48.357Z,1012.72
2017-06-04T07:59:57.251Z,1012.74
2017-06-04T08:01:06.141Z,1012.76
2017-06-04T08:02:15.364Z,1012.79
2017-06-04T08:03:24.268Z,1012.79
2017-06-04T08:04:33.159Z,1012.81
2017-06-04T08:05:42.080Z,1012.84
2017-06-04T08:06:51.304Z,1012.93
2017-06-04T08:08:00.202Z,1012.88
2017-06-04T08:09:09.147Z,1012.86
2017-06-04T08:10:18.040Z,1012.9
2017-06-04T08:11:27.260Z,1012.89
2017-06-04T08:12:36.154Z,1012.79
2017-06-04T08:13:45.045Z,1012.85
2017-06-04T08:14:54.087Z,1012.82
2017-06-04T08:16:02.978Z,1012.84
2017-06-04T08:17:11.872Z,1012.84
2017-06-04T08:18:21.085Z,1012.8
2017-06-04T08:19:29.979Z,1012.86
2017-06-04T08:20:39.297Z,1012.84
2017-06-04T08:21:48.197Z,1012.87
2017-06-04T08:22:57.089Z,1012.86
2017-06-04T08:24:06.632Z,1012.94
2017-06-04T08:25:15.526Z,1012.94
2017-06-04T08:26:24.900Z,1012.92
2017-06-04T08:27:33.795Z,1012.96
2017-06-04T08:28:43.022Z,1012.94
2017-06-04T08:29:51.917Z,1012.9
2017-06-04T08:31:01.134Z,1012.91
2017-06-04T08:32:10.684Z,1012.93
2017-06-04T08:33:20.226Z,1012.97
2017-06-04T08:34:29.447Z,1013.01
2017-06-04T08:35:39.333Z,1012.99
2017-06-04T08:36:48.262Z,1013.01
2017-06-04T08:37:57.538Z,1012.98
2017-06-04T08:39:06.432Z,1012.95
2017-06-04T08:40:15.327Z,1012.97
2017-06-04T08:41:24.227Z,1012.95
2017-06-04T08:42:33.121Z,1013.01
2017-06-04T08:43:42.645Z,1012.96
2017-06-04T08:44:51.543Z,1012.94
2017-06-04T08:46:00.437Z,1013.01
2017-06-04T08:47:09.660Z,1012.95
2017-06-04T08:48:18.562Z,1012.95
2017-06-04T08:49:27.929Z,1012.91
2017-06-04T08:50:36.826Z,1012.9
2017-06-04T08:51:45.723Z,1012.91
2017-06-04T08:52:54.943Z,1012.85
2017-06-04T08:54:04.162Z,1012.85
2017-06-04T08:55:13.162Z,1012.83
2017-06-04T08:56:22.057Z,1012.84
2017-06-04T08:57:31.297Z,1012.81
2017-06-04T08:58:40.846Z,1012.84
2017-06-04T08:59:49.748Z,1012.89
2017-06-04T09:00:58.947Z,1012.93
2017-06-04T09:02:08.168Z,1012.95
2017-06-04T09:03:17.062Z,1012.96
2017-06-04T09:04:25.960Z,1012.88
2017-06-04T09:05:35.180Z,1012.85
2017-06-04T09:06:44.233Z,1012.88
2017-06-04T09:07:53.775Z,1012.85
2017-06-04T09:09:02.668Z,1012.94
2017-06-04T09:10:11.563Z,1012.89
2017-06-04T09:11:20.456Z,1012.95
2017-06-04T09:12:29.676Z,1012.9
2017-06-04T09:13:38.892Z,1012.89
2017-06-04T09:14:47.789Z,1012.92
2017-06-04T09:15:56.678Z,1012.98
2017-06-04T09:17:05.919Z,1012.98
2017-06-04T09:18:15.188Z,1012.95
2017-06-04T09:19:24.090Z,1012.94
2017-06-04T09:20:32.993Z,1012.94
2017-06-04T09:21:41.889Z,1012.94
2017-06-04T09:22:51.109Z,1012.96
2017-06-04T09:24:00.007Z,1013.06
2017-06-04T09:25:08.912Z,1013.05
2017-06-04T09:26:17.809Z,1013.01
2017-06-04T09:27:26.703Z,1012.94
2017-06-04T09:28:35.922Z,1012.89
2017-06-04T09:29:44.972Z,1012.97
2017-06-04T09:30:54.190Z,1013.03
2017-06-04T09:32:03.413Z,1013.03
2017-06-04T09:33:12.306Z,1013.02
2017-06-04T09:34:21.202Z,1013.04
2017-06-04T09:35:30.147Z,1013.09
2017-06-04T09:36:39.043Z,1013.22
2017-06-04T09:37:48.266Z,1013.07
2017-06-04T09:38:57.166Z,1013.14
2017-06-04T09:40:06.059Z,1013.08
2017-06-04T09:41:15.050Z,1013.09
2017-06-04T09:42:23.941Z,1013.07
2017-06-04T09:43:33.158Z,1013.06
2017-06-04T09:44:42.056Z,1013.09
2017-06-04T09:45:50.951Z,1013.07
2017-06-04T09:46:59.893Z,1013.07
2017-06-04T09:48:09.434Z,1013.18
2017-06-04T09:49:18.328Z,1013.19
2017-06-04T09:50:27.552Z,1013.15
2017-06-04T09:51:36.777Z,1013.22
2017-06-04T09:52:45.767Z,1013.22
2017-06-04T09:53:54.662Z,1013.16
2017-06-04T09:55:03.555Z,1013.22
2017-06-04T09:56:12.450Z,1013.18
2017-06-04T09:57:21.347Z,1013.29
2017-06-04T09:58:30.339Z,1013.2
2017-06-04T09:59:39.232Z,1013.28
2017-06-04T10:00:48.128Z,1013.3
2017-06-04T10:01:57.344Z,1013.36
2017-06-04T10:03:06.564Z,1013.45
2017-06-04T10:04:15.608Z,1013.23
2017-06-04T10:05:24.501Z,1013.4
2017-06-04T10:06:33.396Z,1013.33
2017-06-04T10:07:42.317Z,1013.34
2017-06-04T10:08:51.212Z,1013.36
2017-06-04T10:10:00.830Z,1013.32
2017-06-04T10:11:09.726Z,1013.33
2017-06-04T10:12:18.951Z,1013.31
2017-06-04T10:13:27.843Z,1013.33
2017-06-04T10:14:37.063Z,1013.33
2017-06-04T10:15:46.108Z,1013.37
2017-06-04T10:16:55.325Z,1013.38
2017-06-04T10:18:04.223Z,1013.41
2017-06-04T10:19:13.120Z,1013.43
2017-06-04T10:20:22.011Z,1013.45
2017-06-04T10:21:30.956Z,1013.45
2017-06-04T10:22:39.850Z,1013.35
2017-06-04T10:23:48.750Z,1013.3
2017-06-04T10:24:57.652Z,1013.44
2017-06-04T10:26:06.545Z,1013.32
2017-06-04T10:27:15.488Z,1013.48
2017-06-04T10:28:24.381Z,1013.4
2017-06-04T10:29:33.604Z,1013.43
2017-06-04T10:30:42.832Z,1013.39
2017-06-04T10:31:52.051Z,1013.45
2017-06-04T10:33:00.948Z,1013.43
2017-06-04T10:34:09.848Z,1013.5
2017-06-04T10:35:18.743Z,1013.38
2017-06-04T10:36:27.648Z,1013.46
2017-06-04T10:37:36.544Z,1013.42
2017-06-04T10:38:45.768Z,1013.62
2017-06-04T10:39:54.984Z,1013.45
2017-06-04T10:41:04.219Z,1013.42
2017-06-04T10:42:13.110Z,1013.36
2017-06-04T10:43:22.335Z,1013.38
2017-06-04T10:44:31.377Z,1013.46
2017-06-04T10:45:40.598Z,1013.38
2017-06-04T10:46:49.816Z,1013.38
2017-06-04T10:47:58.748Z,1013.37
2017-06-04T10:49:07.639Z,1013.36
2017-06-04T10:50:16.833Z,1013.4
2017-06-04T10:51:25.728Z,1013.33
2017-06-04T10:52:34.629Z,1013.37
2017-06-04T10:53:43.849Z,1013.41
2017-06-04T10:54:53.067Z,1013.34
2017-06-04T10:56:01.963Z,1013.41
2017-06-04T10:57:11.185Z,1013.44
2017-06-04T10:58:20.409Z,1013.43
2017-06-04T10:59:29.312Z,1013.49
2017-06-04T11:00:38.209Z,1013.5
2017-06-04T11:01:47.221Z,1013.4
2017-06-04T11:02:56.442Z,1013.57
2017-06-04T11:04:05.334Z,1013.46
2017-06-04T11:05:14.231Z,1013.5
2017-06-04T11:06:23.132Z,1013.54
2017-06-04T11:07:32.030Z,1013.51
2017-06-04T11:08:40.925Z,1013.52
2017-06-04T11:09:49.828Z,1013.59
2017-06-04T11:10:58.726Z,1013.54
2017-06-04T11:12:07.625Z,1013.48
2017-06-04T11:13:16.824Z,1013.51
2017-06-04T11:14:26.042Z,1013.55
2017-06-04T11:15:35.261Z,1013.53
2017-06-04T11:16:44.166Z,1013.46
2017-06-04T11:17:53.062Z,1013.55
2017-06-04T11:19:02.157Z,1013.47
2017-06-04T11:20:11.056Z,1013.61
2017-06-04T11:21:20.276Z,1013.58
2017-06-04T11:22:29.494Z,1013.51
2017-06-04T11:23:38.399Z,1013.45
2017-06-04T11:24:47.449Z,1013.54
2017-06-04T11:25:56.345Z,1013.49
2017-06-04T11:27:05.563Z,1013.53
2017-06-04T11:28:14.795Z,1013.58
2017-06-04T11:29:24.027Z,1013.56
2017-06-04T11:30:33.347Z,1013.53
2017-06-04T11:31:42.241Z,1013.56
2017-06-04T11:32:51.465Z,1013.54
2017-06-04T11:34:00.360Z,1013.45
2017-06-04T11:35:09.583Z,1013.58
2017-06-04T11:36:18.486Z,1013.48
2017-06-04T11:37:27.383Z,1013.48
2017-06-04T11:38:36.933Z,1013.46
2017-06-04T11:39:45.834Z,1013.47
2017-06-04T11:40:55.052Z,1013.5
2017-06-04T11:42:03.950Z,1013.56
2017-06-04T11:43:12.846Z,1013.52
2017-06-04T11:44:21.745Z,1013.76
2017-06-04T11:45:30.645Z,1013.59
2017-06-04T11:46:39.867Z,1013.63
2017-06-04T11:47:49.016Z,1013.56
2017-06-04T11:48:57.917Z,1013.67
2017-06-04T11:50:07.134Z,1013.6
2017-06-04T11:51:16.029Z,1013.52
2017-06-04T11:52:24.932Z,1013.57
2017-06-04T11:53:33.880Z,1013.56
2017-06-04T11:54:42.778Z,1013.58
2017-06-04T11:55:51.677Z,1013.64
2017-06-04T11:57:00.908Z,1013.53
2017-06-04T11:58:09.805Z,1013.55
2017-06-04T11:59:19.131Z,1013.58
2017-06-04T12:00:28.028Z,1013.64
2017-06-04T12:01:37.249Z,1013.82
2017-06-04T12:02:46.798Z,1013.7
2017-06-04T12:03:55.724Z,1013.65
2017-06-04T12:05:05.532Z,1013.69
2017-06-04T12:06:14.429Z,1013.75
2017-06-04T12:07:23.327Z,1013.66
2017-06-04T12:08:32.230Z,1013.55
2017-06-04T12:09:41.457Z,1013.62
2017-06-04T12:10:50.557Z,1013.6
2017-06-04T12:11:59.787Z,1013.59
2017-06-04T12:13:08.689Z,1013.64
2017-06-04T12:14:17.592Z,1013.62
2017-06-04T12:15:26.490Z,1013.61
2017-06-04T12:16:35.536Z,1013.55
2017-06-04T12:17:45.085Z,1013.61
2017-06-04T12:18:54.310Z,1013.68
2017-06-04T12:20:03.210Z,1013.74
2017-06-04T12:21:12.435Z,1013.7
2017-06-04T12:22:21.811Z,1013.65
2017-06-04T12:23:31.367Z,1013.67
2017-06-04T12:24:40.270Z,1013.68
2017-06-04T12:25:49.172Z,1013.63
2017-06-04T12:26:58.407Z,1013.66
2017-06-04T12:28:07.362Z,1013.53
2017-06-04T12:29:16.259Z,1013.55
2017-06-04T12:30:25.162Z,1013.64
2017-06-04T12:31:34.067Z,1013.59
2017-06-04T12:32:42.968Z,1013.63
2017-06-04T12:33:51.918Z,1013.62
2017-06-04T12:35:00.821Z,1013.7
2017-06-04T12:36:10.054Z,1013.58
2017-06-04T12:37:19.281Z,1013.57
2017-06-04T12:38:28.185Z,1013.54
2017-06-04T12:39:37.186Z,1013.58
2017-06-04T12:40:46.419Z,1013.64
2017-06-04T12:41:55.645Z,1013.6
2017-06-04T12:43:04.564Z,1013.66
2017-06-04T12:44:13.468Z,1013.68
2017-06-04T12:45:22.740Z,1013.67
2017-06-04T12:46:31.636Z,1013.66
2017-06-04T12:47:40.866Z,1013.68
2017-06-04T12:48:50.413Z,1013.77
2017-06-04T12:49:59.638Z,1013.74
2017-06-04T12:51:08.690Z,1013.66
2017-06-04T12:52:17.616Z,1013.8
2017-06-04T12:53:26.517Z,1013.76
2017-06-04T12:54:35.415Z,1013.87
2017-06-04T12:55:44.668Z,1013.76
2017-06-04T12:56:53.941Z,1013.81
2017-06-04T12:58:03.493Z,1013.82
2017-06-04T12:59:12.748Z,1013.8
2017-06-04T13:00:21.646Z,1013.82
2017-06-04T13:01:30.868Z,1013.82
2017-06-04T13:02:39.963Z,1013.87
2017-06-04T13:03:49.181Z,1013.89
2017-06-04T13:04:58.085Z,1013.83
2017-06-04T13:06:06.984Z,1013.79
2017-06-04T13:07:15.890Z,1013.85
2017-06-04T13:08:25.271Z,1013.84
2017-06-04T13:09:34.174Z,1013.96
2017-06-04T13:10:43.072Z,1014.02
2017-06-04T13:11:51.979Z,1013.84
2017-06-04T13:13:00.876Z,1013.84
2017-06-04T13:14:09.776Z,1013.84
2017-06-04T13:15:19.002Z,1013.85
2017-06-04T13:16:28.226Z,1013.79
2017-06-04T13:17:37.126Z,1013.86
2017-06-04T13:18:46.346Z,1013.83
2017-06-04T13:19:55.404Z,1013.91
2017-06-04T13:21:04.309Z,1013.87
2017-06-04T13:22:13.209Z,1013.89
2017-06-04T13:23:22.111Z,1013.83
2017-06-04T13:24:31.011Z,1013.84
2017-06-04T13:25:40.538Z,1013.88
2017-06-04T13:26:49.761Z,1013.83
2017-06-04T13:27:58.985Z,1013.85
2017-06-04T13:29:07.889Z,1013.85
2017-06-04T13:30:16.786Z,1013.86
2017-06-04T13:31:25.832Z,1013.92
2017-06-04T13:32:35.057Z,1013.87
2017-06-04T13:33:44.278Z,1013.84
2017-06-04T13:34:53.175Z,1013.84
2017-06-04T13:36:02.076Z,1013.9
2017-06-04T13:37:11.458Z,1013.86
2017-06-04T13:38:20.353Z,1013.77
2017-06-04T13:39:29.253Z,1013.81
2017-06-04T13:40:38.152Z,1013.79
2017-06-04T13:41:47.375Z,1013.72
2017-06-04T13:42:56.426Z,1013.75
2017-06-04T13:44:05.324Z,1013.76
2017-06-04T13:45:14.247Z,1013.76
2017-06-04T13:46:23.148Z,1013.75
2017-06-04T13:47:32.368Z,1013.81
2017-06-04T13:48:41.271Z,1013.81
2017-06-04T13:49:50.493Z,1013.87
2017-06-04T13:51:00.044Z,1013.79
2017-06-04T13:52:08.944Z,1013.75
2017-06-04T13:53:17.846Z,1013.82
2017-06-04T13:54:27.069Z,1013.75
2017-06-04T13:55:36.294Z,1013.78
2017-06-04T13:56:45.190Z,1013.79
2017-06-04T13:57:54.411Z,1013.8